Wetterdaten: aktuell Donnerstag, 20.06.2019 05:48
Datum Zeit Temperatur Bodentemp. Luftfeuchte Luftdruck Regen Wind Richtung Richtung Sonnenschein
20.06.2019 05:48 15,5 C 8,6 C 100 % 1010 hPa 0,0 l/m 6,5 km/h (2 Bft) S-SW 210 0 min
20.06.2019 05:44 15,5 C 8,3 C 100 % 1010 hPa 0,0 l/m 5,2 km/h (1 Bft) S-SW22.5 210 0 min
20.06.2019 05:39 15,4 C 8,3 C 100 % 1009 hPa 0,0 l/m 0,0 km/h (0 Bft) S-SW 205 0 min
20.06.2019 05:34 15,4 C 8,4 C 100 % 1009 hPa 0,0 l/m 0,0 km/h (0 Bft) S-SW 210 0 min
20.06.2019 05:29 15,3 C 8,3 C 100 % 1009 hPa 0,0 l/m 0,0 km/h (0 Bft) S-SW 200 0 min
20.06.2019 05:24 15,3 C 8,4 C 100 % 1009 hPa 0,0 l/m 0,0 km/h (0 Bft) SW22.5 225 0 min
20.06.2019 05:19 15,1 C 8,0 C 100 % 1009 hPa 0,0 l/m 0,0 km/h (0 Bft) S 180 0 min
20.06.2019 05:14 15,0 C 7,7 C 100 % 1009 hPa 0,0 l/m 0,0 km/h (0 Bft) S 180 0 min
20.06.2019 05:09 14,9 C 7,8 C 100 % 1009 hPa 0,0 l/m 0,0 km/h (0 Bft) S 180 0 min
20.06.2019 05:04 15,0 C 7,9 C 100 % 1009 hPa 0,0 l/m 0,0 km/h (0 Bft) S 180 0 min
20.06.2019 04:59 15,1 C 8,3 C 100 % 1009 hPa 0,0 l/m 0,0 km/h (0 Bft) S 190 0 min
20.06.2019 04:53 15,2 C 8,6 C 100 % 1009 hPa 0,0 l/m 0,0 km/h (0 Bft) SW22.5 220 0 min
20.06.2019 04:49 15,3 C 8,6 C 100 % 1009 hPa 0,0 l/m 6,6 km/h (2 Bft) W-SW 245 0 min
20.06.2019 04:44 15,2 C 8,3 C 100 % 1009 hPa 0,0 l/m 0,0 km/h (0 Bft) SW 215 0 min
20.06.2019 04:39 15,2 C 8,4 C 100 % 1009 hPa 0,0 l/m 9,6 km/h (2 Bft) W45 265 0 min
20.06.2019 04:34 15,1 C 8,2 C 100 % 1009 hPa 0,0 l/m 5,8 km/h (2 Bft) S 190 0 min
20.06.2019 04:29 15,1 C 7,8 C 100 % 1009 hPa 0,0 l/m 0,0 km/h (0 Bft) SO 125 0 min
20.06.2019 04:24 15,0 C 7,9 C 100 % 1009 hPa 0,0 l/m 0,0 km/h (0 Bft) O-SO 120 0 min
20.06.2019 04:19 15,1 C 8,1 C 100 % 1009 hPa 0,0 l/m 0,0 km/h (0 Bft) SO 125 0 min
20.06.2019 04:14 15,1 C 8,2 C 100 % 1009 hPa 0,0 l/m 0,0 km/h (0 Bft) SO 125 0 min
20.06.2019 04:09 15,2 C 8,1 C 100 % 1009 hPa 0,0 l/m 0,0 km/h (0 Bft) O-SO 120 0 min
20.06.2019 04:04 15,2 C 8,3 C 100 % 1009 hPa 0,0 l/m 0,0 km/h (0 Bft) O-SO 120 0 min
20.06.2019 03:58 15,4 C 8,4 C 100 % 1009 hPa 0,0 l/m 0,0 km/h (0 Bft) O-SO 120 0 min
20.06.2019 03:54 15,6 C 8,4 C 100 % 1009 hPa 0,0 l/m 0,0 km/h (0 Bft) O-SO 120 0 min
20.06.2019 03:49 15,4 C 8,3 C 99 % 1009 hPa 0,0 l/m 0,0 km/h (0 Bft) O-SO 120 0 min
20.06.2019 03:44 15,2 C 8,3 C 99 % 1009 hPa 0,0 l/m 0,0 km/h (0 Bft) O-SO 120 0 min
20.06.2019 03:38 15,1 C 8,2 C 99 % 1009 hPa 0,0 l/m 0,0 km/h (0 Bft) O-SO 120 0 min
20.06.2019 03:34 15,3 C 8,2 C 99 % 1009 hPa 0,0 l/m 0,0 km/h (0 Bft) O-SO 120 0 min
20.06.2019 03:29 15,3 C 8,3 C 99 % 1009 hPa 0,0 l/m 0,0 km/h (0 Bft) O-SO 120 0 min
20.06.2019 03:24 15,4 C 8,2 C 99 % 1009 hPa 0,0 l/m 0,0 km/h (0 Bft) O-SO 120 0 min
20.06.2019 03:19 15,4 C 8,3 C 99 % 1009 hPa 0,0 l/m 0,0 km/h (0 Bft) O-SO 120 0 min
20.06.2019 03:14 15,5 C 8,4 C 99 % 1009 hPa 0,0 l/m 0,0 km/h (0 Bft) O-SO 120 0 min
20.06.2019 03:09 15,6 C 8,5 C 99 % 1009 hPa 0,0 l/m 0,0 km/h (0 Bft) O-SO 120 0 min
20.06.2019 03:04 15,6 C 8,5 C 99 % 1009 hPa 0,0 l/m 0,0 km/h (0 Bft) O-SO 120 0 min
20.06.2019 02:59 15,6 C 8,6 C 99 % 1008 hPa 0,0 l/m 0,0 km/h (0 Bft) O-SO 120 0 min
20.06.2019 02:54 15,6 C 8,4 C 99 % 1008 hPa 0,0 l/m 0,0 km/h (0 Bft) O-SO 120 0 min
20.06.2019 02:49 15,7 C 8,6 C 99 % 1008 hPa 0,0 l/m 0,0 km/h (0 Bft) O-SO 120 0 min
20.06.2019 02:43 15,7 C 8,5 C 99 % 1008 hPa 0,0 l/m 0,0 km/h (0 Bft) O-SO 120 0 min
20.06.2019 02:39 15,8 C 8,7 C 99 % 1008 hPa 0,0 l/m 0,0 km/h (0 Bft) O-SO 120 0 min
20.06.2019 02:34 15,8 C 8,8 C 99 % 1008 hPa 0,0 l/m 0,0 km/h (0 Bft) SO 125 0 min
20.06.2019 02:29 15,8 C 8,8 C 99 % 1009 hPa 0,0 l/m 0,0 km/h (0 Bft) SO 125 0 min
20.06.2019 02:24 15,5 C 8,5 C 98 % 1009 hPa 0,0 l/m 0,0 km/h (0 Bft) SO 140 0 min
20.06.2019 02:19 15,6 C 8,4 C 98 % 1009 hPa 0,0 l/m 0,0 km/h (0 Bft) SO 140 0 min
20.06.2019 02:14 15,6 C 8,4 C 98 % 1009 hPa 0,0 l/m 0,0 km/h (0 Bft) SO 140 0 min
20.06.2019 02:09 15,5 C 8,1 C 98 % 1008 hPa 0,0 l/m 0,0 km/h (0 Bft) SO 140 0 min
20.06.2019 02:04 15,4 C 8,2 C 97 % 1008 hPa 0,0 l/m 0,0 km/h (0 Bft) SO 140 0 min
20.06.2019 01:59 15,6 C 8,4 C 97 % 1008 hPa 0,0 l/m 0,0 km/h (0 Bft) SO 140 0 min
20.06.2019 01:54 15,6 C 8,5 C 97 % 1008 hPa 0,0 l/m 0,0 km/h (0 Bft) SO 140 0 min
20.06.2019 01:48 15,7 C 8,8 C 98 % 1008 hPa 0,0 l/m 0,0 km/h (0 Bft) SO 140 0 min
_ Min-Zeit 05:09 05:14 10:44 13:44 - 06:04 - - -
Minimum _ 14,9 C 7,7 C 5 % 1006 hPa - 0,0 km/h (0 Bft) - - -
_ Max-Zeit 13:04 13:38 03:54 05:44 22:44 21:34 - - 09:24
Maximum _ 32,6 C 18,5 C 100 % 1010 hPa 0,7 l/m 54,3 km/h
NW (7 Bft)
- - 6 min
Durchschnitt _ 23,2 C 12,5 C 54 % 1007 hPa #1,4 l/m 6,8 km/h (2 Bft) SO - #0 min.